Time;durP1;ratioP1;P1;durP2;ratioP2;P2;SDS_P1;SDS_P2;PMS_P1;PMS_P2;Temp;Humidity;BMP_temperature;BMP_pressure;BME280_temperature;BME280_humidity;BME280_pressure;Samples;Min_cycle;Max_cycle;Signal;HPM_P1;HPM_P2
2022/06/25 00:01:44;;;;;;;11.60;8.90;;;;;;;17.57;100.00;100801.81;5041512;28;20037;-72
2022/06/25 00:05:27;;;;;;;13.32;9.00;;;;;;;17.56;100.00;100803.66;5042600;28;20036;-72
2022/06/25 00:06:55;;;;;;;11.50;8.18;;;;;;;17.52;100.00;100810.34;5041176;28;20060;-72
2022/06/25 00:09:20;;;;;;;12.13;8.63;;;;;;;17.60;100.00;100809.63;5040359;28;20127;-72
2022/06/25 00:14:30;;;;;;;12.82;8.15;;;;;;;17.60;100.00;100804.22;5042709;28;20045;-72
2022/06/25 00:16:56;;;;;;;10.80;7.53;;;;;;;17.53;100.00;100805.81;5042180;28;20040;-72
2022/06/25 00:19:23;;;;;;;9.18;7.53;;;;;;;17.52;100.00;100801.38;5055051;28;20511;-72
2022/06/25 00:21:49;;;;;;;10.55;7.90;;;;;;;17.49;100.00;100807.94;5043812;28;20505;-72
2022/06/25 00:24:16;;;;;;;10.68;7.05;;;;;;;17.59;100.00;100799.84;5042230;28;20056;-72
2022/06/25 00:26:42;;;;;;;13.20;7.20;;;;;;;17.66;100.00;100802.78;5044558;28;20077;-72
2022/06/25 00:29:10;;;;;;;11.13;7.30;;;;;;;17.63;100.00;100808.50;5054096;28;20041;-72
2022/06/25 00:31:36;;;;;;;9.40;6.28;;;;;;;17.57;100.00;100807.19;5024503;28;20151;-72
2022/06/25 00:34:01;;;;;;;8.15;6.93;;;;;;;17.58;100.00;100811.63;5044457;28;20040;-73
2022/06/25 00:36:27;;;;;;;8.00;5.63;;;;;;;17.61;100.00;100816.72;5049713;28;20078;-72
2022/06/25 00:38:52;;;;;;;11.98;6.50;;;;;;;17.60;100.00;100810.47;5023657;28;20033;-72
2022/06/25 00:41:18;;;;;;;10.13;6.30;;;;;;;17.51;100.00;100815.88;5042003;28;20037;-72
2022/06/25 00:43:43;;;;;;;12.82;6.60;;;;;;;17.54;100.00;100815.59;5042152;28;20483;-72
2022/06/25 00:46:09;;;;;;;9.85;5.95;;;;;;;17.49;100.00;100825.94;5042008;28;20190;-72
2022/06/25 00:48:34;;;;;;;12.38;6.20;;;;;;;17.51;100.00;100827.50;5042051;28;20045;-73
2022/06/25 00:51:05;;;;;;;9.80;5.72;;;;;;;17.55;100.00;100820.84;5056154;28;20151;-72
2022/06/25 00:53:32;;;;;;;9.30;5.63;;;;;;;17.43;100.00;100818.44;5041907;28;20487;-72
2022/06/25 00:56:03;;;;;;;6.80;5.43;;;;;;;17.47;100.00;100831.50;5041602;28;20033;-72
2022/06/25 00:58:31;;;;;;;8.88;5.20;;;;;;;17.47;100.00;100820.72;5056406;28;20049;-72
2022/06/25 01:00:59;;;;;;;6.97;5.25;;;;;;;17.49;100.00;100820.56;5019325;28;20034;-72
2022/06/25 01:03:25;;;;;;;8.05;5.53;;;;;;;17.46;100.00;100831.63;5022883;28;20247;-72
2022/06/25 01:05:51;;;;;;;8.18;4.82;;;;;;;17.53;99.75;100824.69;5055267;28;20041;-72
2022/06/25 01:08:18;;;;;;;10.55;5.70;;;;;;;17.35;100.00;100830.75;5039708;28;20083;-72
2022/06/25 01:10:44;;;;;;;6.95;5.13;;;;;;;17.33;100.00;100832.75;5020856;28;20083;-73
2022/06/25 01:13:10;;;;;;;8.13;5.60;;;;;;;17.34;100.00;100845.25;5028188;28;20515;-72
2022/06/25 01:15:35;;;;;;;10.02;4.75;;;;;;;17.35;100.00;100838.84;5048548;28;20144;-72
2022/06/25 01:18:01;;;;;;;6.72;5.07;;;;;;;17.30;100.00;100840.28;5056004;28;20059;-73
2022/06/25 01:20:27;;;;;;;7.65;5.10;;;;;;;17.32;100.00;100844.53;5044094;28;20213;-73
2022/06/25 01:22:54;;;;;;;6.72;4.60;;;;;;;17.30;100.00;100849.19;5039752;28;20530;-72
2022/06/25 01:25:20;;;;;;;8.32;5.05;;;;;;;17.35;100.00;100846.94;5025969;28;20041;-72
2022/06/25 01:27:47;;;;;;;8.90;4.88;;;;;;;17.31;100.00;100850.91;5058933;28;20044;-73
2022/06/25 01:30:13;;;;;;;5.20;4.70;;;;;;;17.32;99.93;100852.63;5025668;28;20031;-72
2022/06/25 01:32:39;;;;;;;5.28;4.72;;;;;;;17.28;100.00;100859.28;5022601;28;20042;-73
2022/06/25 01:35:05;;;;;;;5.22;4.68;;;;;;;17.26;100.00;100865.78;5040050;28;20111;-72
2022/06/25 01:37:33;;;;;;;5.65;4.85;;;;;;;17.22;100.00;100862.56;5049564;28;20059;-72
2022/06/25 01:40:01;;;;;;;8.35;5.03;;;;;;;17.21;100.00;100863.50;5059347;28;20124;-73
2022/06/25 01:45:12;;;;;;;7.47;5.25;;;;;;;17.20;100.00;100872.59;5047495;28;20045;-72
2022/06/25 01:47:38;;;;;;;10.98;4.93;;;;;;;17.18;100.00;100882.69;5044340;28;20037;-73
2022/06/25 01:50:06;;;;;;;7.97;5.53;;;;;;;17.07;100.00;100883.66;5025888;28;20033;-72
2022/06/25 01:52:31;;;;;;;7.38;4.93;;;;;;;17.21;99.93;100882.38;5044312;28;20048;-72
2022/06/25 01:54:57;;;;;;;6.65;4.85;;;;;;;17.09;100.00;100875.41;5044649;28;20040;-71
2022/06/25 01:57:22;;;;;;;9.65;5.15;;;;;;;17.15;99.94;100885.63;5059149;28;20033;-71
2022/06/25 01:59:51;;;;;;;7.72;4.10;;;;;;;17.11;100.00;100883.34;5022705;28;20041;-71
2022/06/25 02:02:18;;;;;;;8.18;5.07;;;;;;;17.03;100.00;100882.22;5025879;28;20037;-71
2022/06/25 02:04:43;;;;;;;8.10;5.30;;;;;;;16.98;100.00;100883.63;5044180;28;20037;-72
2022/06/25 02:07:09;;;;;;;6.10;4.60;;;;;;;16.96;100.00;100893.66;5026032;28;20037;-72
2022/06/25 02:09:35;;;;;;;10.18;5.03;;;;;;;17.00;100.00;100893.25;5043894;28;20398;-72
2022/06/25 02:12:00;;;;;;;6.72;4.20;;;;;;;16.93;100.00;100904.75;5022475;28;20038;-73
2022/06/25 02:14:26;;;;;;;8.35;5.18;;;;;;;16.94;100.00;100901.03;5039582;28;20051;-72
2022/06/25 02:16:53;;;;;;;6.88;4.57;;;;;;;16.85;100.00;100905.41;5043624;28;20781;-72
2022/06/25 02:19:18;;;;;;;6.78;4.50;;;;;;;16.85;100.00;100902.72;5043954;28;20049;-75
2022/06/25 02:21:44;;;;;;;7.95;4.80;;;;;;;16.77;100.00;100908.78;5049838;28;20048;-73
2022/06/25 02:24:09;;;;;;;7.10;4.95;;;;;;;16.79;100.00;100914.88;5034055;28;20037;-72
2022/06/25 02:26:35;;;;;;;11.77;5.00;;;;;;;16.87;100.00;100921.41;5058929;28;20083;-72
2022/06/25 02:29:00;;;;;;;9.35;4.68;;;;;;;16.83;100.00;100920.84;5025244;28;20037;-72
2022/06/25 02:31:29;;;;;;;7.50;5.03;;;;;;;16.66;100.00;100926.81;5042414;28;20094;-72
2022/06/25 02:33:54;;;;;;;5.13;4.63;;;;;;;16.61;100.00;100921.00;5042436;28;20479;-72
2022/06/25 02:36:21;;;;;;;8.43;4.40;;;;;;;16.56;100.00;100927.63;5057409;28;20166;-72
2022/06/25 02:38:46;;;;;;;7.25;4.68;;;;;;;16.68;100.00;100922.19;5054907;28;20037;-72
2022/06/25 02:41:12;;;;;;;8.85;5.00;;;;;;;16.56;100.00;100927.63;5025283;28;20040;-72
2022/06/25 02:43:38;;;;;;;9.75;4.95;;;;;;;16.48;100.00;100935.53;5043177;28;20048;-72
2022/06/25 02:46:11;;;;;;;9.10;4.95;;;;;;;16.49;100.00;100941.78;5058589;28;20041;-72
2022/06/25 02:48:37;;;;;;;10.77;4.45;;;;;;;16.49;100.00;100939.94;5058258;28;20040;-73
2022/06/25 02:51:04;;;;;;;6.28;4.70;;;;;;;16.47;100.00;100949.13;5024697;28;20067;-72
2022/06/25 02:53:29;;;;;;;9.15;5.10;;;;;;;16.47;100.00;100950.00;5039104;28;20113;-72
2022/06/25 02:58:55;;;;;;;7.93;4.88;;;;;;;16.38;100.00;100958.84;5052787;28;20057;-73
2022/06/25 03:01:28;;;;;;;7.70;5.10;;;;;;;16.34;100.00;100952.03;5025055;28;20041;-73
2022/06/25 03:03:56;;;;;;;6.55;4.80;;;;;;;16.39;100.00;100959.69;5038496;28;20033;-73
2022/06/25 03:06:22;;;;;;;10.63;4.82;;;;;;;16.38;100.00;100958.00;5024478;28;20029;-73
2022/06/25 03:08:48;;;;;;;7.55;4.75;;;;;;;16.50;100.00;100951.53;5056550;28;20086;-73
2022/06/25 03:11:14;;;;;;;12.50;4.95;;;;;;;16.43;100.00;100956.63;5053764;28;20114;-73
2022/06/25 03:13:40;;;;;;;5.82;4.25;;;;;;;16.54;100.00;100958.38;5049279;28;20037;-73
2022/06/25 03:16:07;;;;;;;6.95;4.15;;;;;;;16.52;100.00;100953.13;5028677;28;20055;-72
2022/06/25 03:18:33;;;;;;;6.63;4.18;;;;;;;16.53;100.00;100960.22;5057756;28;20040;-72
2022/06/25 03:21:24;;;;;;;10.33;4.17;;;;;;;16.45;100.00;100949.25;5043629;28;20037;-72
2022/06/25 03:23:57;;;;;;;7.88;4.18;;;;;;;16.45;100.00;100960.00;5021422;28;20052;-72
2022/06/25 03:26:23;;;;;;;6.32;4.30;;;;;;;16.45;100.00;100953.78;5024618;28;20040;-72
2022/06/25 03:28:52;;;;;;;11.10;4.88;;;;;;;16.55;100.00;100955.53;5042863;28;20039;-72
2022/06/25 03:31:17;;;;;;;6.35;4.13;;;;;;;16.80;100.00;100969.59;5042159;28;20041;-72
2022/06/25 03:33:44;;;;;;;7.30;4.10;;;;;;;16.95;99.18;100970.94;5053989;28;20025;-72
2022/06/25 03:36:17;;;;;;;8.25;4.35;;;;;;;16.97;98.83;100965.44;5021094;28;20061;-72
2022/06/25 03:38:44;;;;;;;7.88;4.70;;;;;;;17.01;98.45;100972.25;5021328;28;20045;-72
2022/06/25 03:44:06;;;;;;;10.77;4.50;;;;;;;17.12;97.50;100968.59;5024067;28;20040;-72
2022/06/25 03:46:33;;;;;;;7.25;4.22;;;;;;;17.06;97.76;100972.69;5024001;28;20511;-72
2022/06/25 03:49:00;;;;;;;5.95;4.50;;;;;;;17.15;97.08;100976.41;5057028;28;20037;-72
2022/06/25 03:51:43;;;;;;;5.30;4.13;;;;;;;17.08;97.24;100973.41;5024352;28;20024;-72
2022/06/25 03:54:09;;;;;;;9.57;4.60;;;;;;;17.27;96.54;100981.56;5049464;28;20047;-72
2022/06/25 03:56:35;;;;;;;7.43;4.28;;;;;;;17.20;96.49;100975.00;5028358;28;20041;-73
2022/06/25 03:59:03;;;;;;;7.55;3.90;;;;;;;17.09;97.03;100981.34;5038241;28;20498;-72
2022/06/25 04:01:29;;;;;;;9.15;4.55;;;;;;;17.18;96.58;100976.16;5024441;28;20128;-73
2022/06/25 04:03:55;;;;;;;7.57;4.55;;;;;;;17.12;96.61;100979.38;5056992;28;20048;-72
2022/06/25 04:06:21;;;;;;;9.73;4.25;;;;;;;17.23;96.18;100969.34;5050877;28;20036;-72
2022/06/25 04:08:50;;;;;;;11.27;4.35;;;;;;;17.30;95.86;100977.75;5028352;28;20040;-72
2022/06/25 04:11:16;;;;;;;8.27;4.57;;;;;;;17.40;95.85;100975.91;5020264;28;20097;-71
2022/06/25 04:13:51;;;;;;;9.80;4.63;;;;;;;17.37;96.07;100978.91;5037655;28;20036;-72
2022/06/25 04:16:17;;;;;;;6.55;4.18;;;;;;;17.37;95.92;100989.69;5023510;28;20033;-72
2022/06/25 04:18:43;;;;;;;9.27;4.68;;;;;;;17.52;95.43;100979.34;5032504;28;20041;-72
2022/06/25 04:21:09;;;;;;;6.63;4.07;;;;;;;17.60;95.31;100984.91;5028422;28;20498;-72
2022/06/25 04:23:35;;;;;;;8.75;4.63;;;;;;;17.54;94.77;100980.94;5048491;28;20048;-73
2022/06/25 04:26:03;;;;;;;9.35;3.90;;;;;;;17.54;95.05;100977.38;5042896;28;20128;-72
2022/06/25 04:31:34;;;;;;;7.05;4.05;;;;;;;17.72;94.81;100978.41;4922163;29;20138;-72
2022/06/25 04:34:01;;;;;;;8.27;3.97;;;;;;;17.73;95.04;100988.25;4921543;29;20040;-73
2022/06/25 04:36:27;;;;;;;11.43;4.28;;;;;;;17.81;94.70;100982.13;4922008;29;20067;-73
2022/06/25 04:38:55;;;;;;;6.97;4.22;;;;;;;17.96;93.82;100978.00;4932862;29;20054;-72
2022/06/25 04:41:21;;;;;;;5.55;4.03;;;;;;;17.96;94.13;100988.81;4892243;29;20263;-73
2022/06/25 04:43:53;;;;;;;7.03;4.18;;;;;;;17.99;94.15;100995.78;4938879;29;20077;-72
2022/06/25 04:46:22;;;;;;;8.40;4.38;;;;;;;18.16;93.59;100994.22;4927810;29;20051;-73
2022/06/25 04:48:47;;;;;;;10.90;4.50;;;;;;;18.25;93.97;100996.91;4934605;29;20035;-73
2022/06/25 04:51:24;;;;;;;12.02;4.95;;;;;;;18.41;92.74;100987.38;4921960;29;20056;-73
2022/06/25 04:53:57;;;;;;;8.32;4.70;;;;;;;18.58;92.23;100998.28;4933641;28;20199;-72
2022/06/25 04:56:37;;;;;;;6.60;4.00;;;;;;;20.24;85.37;100995.63;4920866;29;20059;-73
2022/06/25 04:59:04;;;;;;;8.32;4.38;;;;;;;20.90;80.24;100992.38;4919943;29;20897;-73
2022/06/25 05:01:52;;;;;;;6.07;3.45;;;;;;;22.61;75.01;101000.16;4921193;29;20039;-73
2022/06/25 05:04:23;;;;;;;8.73;3.85;;;;;;;23.05;70.70;101000.59;4929837;28;20043;-71
2022/06/25 05:06:49;;;;;;;8.77;3.53;;;;;;;24.05;67.17;101008.97;5022947;28;20095;-71
2022/06/25 05:09:14;;;;;;;3.85;3.10;;;;;;;24.15;66.15;101004.13;5061143;28;20795;-73
2022/06/25 05:11:41;;;;;;;5.65;3.42;;;;;;;24.28;64.92;101004.34;5032307;28;20777;-73
2022/06/25 05:14:07;;;;;;;4.03;2.92;;;;;;;25.19;63.81;101005.19;5023271;28;20814;-71
2022/06/25 05:16:33;;;;;;;4.25;3.10;;;;;;;24.95;64.39;101013.63;5056316;28;20037;-73
2022/06/25 05:18:59;;;;;;;4.70;3.28;;;;;;;24.97;63.57;101001.50;5056936;28;20042;-73
2022/06/25 05:21:25;;;;;;;6.43;2.80;;;;;;;24.53;64.77;101009.63;5044488;28;20110;-73
2022/06/25 05:23:51;;;;;;;7.30;2.88;;;;;;;22.93;69.65;101007.41;5034555;28;20037;-74
2022/06/25 05:26:17;;;;;;;3.80;2.90;;;;;;;23.13;69.64;101014.16;5042262;28;20052;-73
2022/06/25 05:28:42;;;;;;;5.00;3.10;;;;;;;23.65;68.06;101004.63;5053557;28;20033;-73
2022/06/25 05:31:08;;;;;;;3.42;3.00;;;;;;;23.42;70.15;101015.41;5036722;28;20040;-73
2022/06/25 05:33:33;;;;;;;4.70;2.97;;;;;;;23.79;68.78;101020.19;5008274;28;20387;-73
2022/06/25 05:35:59;;;;;;;6.07;2.47;;;;;;;23.93;68.69;101024.88;5042298;28;20028;-73
2022/06/25 05:38:25;;;;;;;5.22;2.85;;;;;;;24.21;66.59;101024.34;5056819;28;20130;-73
2022/06/25 05:40:54;;;;;;;7.18;3.58;;;;;;;24.82;64.73;101027.94;5023605;28;20037;-73
2022/06/25 05:43:19;;;;;;;2.97;2.65;;;;;;;24.81;63.71;101028.97;5039576;28;20044;-73
2022/06/25 05:45:45;;;;;;;8.05;2.85;;;;;;;25.42;64.59;101032.41;5050488;28;20048;-73
2022/06/25 05:48:10;;;;;;;5.45;3.03;;;;;;;25.33;63.13;101032.69;5027117;28;20029;-73
2022/06/25 05:50:36;;;;;;;6.90;3.53;;;;;;;25.77;61.93;101038.97;5050084;28;20032;-73
2022/06/25 05:53:01;;;;;;;6.45;4.18;;;;;;;25.08;64.16;101030.25;5052208;28;20704;-74
2022/06/25 05:55:27;;;;;;;4.25;3.30;;;;;;;24.79;65.43;101040.06;5035666;28;20045;-73
2022/06/25 05:57:52;;;;;;;4.75;2.72;;;;;;;24.83;63.88;101039.69;5059839;28;20217;-74
2022/06/25 06:00:18;;;;;;;3.40;2.75;;;;;;;25.22;62.69;101039.47;5054293;28;20032;-73
2022/06/25 06:02:44;;;;;;;6.72;2.95;;;;;;;25.93;61.20;101037.06;5030985;28;20043;-74
2022/06/25 06:05:10;;;;;;;7.25;3.35;;;;;;;26.17;60.56;101044.88;5025979;28;20041;-73
2022/06/25 06:07:36;;;;;;;6.53;3.22;;;;;;;25.44;62.46;101049.44;5036611;28;20052;-73
2022/06/25 06:10:02;;;;;;;8.13;3.55;;;;;;;24.96;63.26;101043.47;5039310;28;20121;-73
2022/06/25 06:12:27;;;;;;;7.30;3.38;;;;;;;25.41;61.86;101047.09;5041364;28;20051;-74
2022/06/25 06:14:53;;;;;;;6.70;3.67;;;;;;;25.16;62.98;101048.44;5048177;28;20779;-73
2022/06/25 06:17:18;;;;;;;7.18;3.30;;;;;;;25.13;63.76;101044.19;5044808;28;20059;-73
2022/06/25 06:19:44;;;;;;;5.68;3.22;;;;;;;25.44;62.60;101051.31;5047890;28;20044;-73
2022/06/25 06:22:09;;;;;;;7.13;3.72;;;;;;;25.36;63.11;101051.44;5046208;28;20059;-73
2022/06/25 06:24:35;;;;;;;8.20;4.28;;;;;;;25.39;61.60;101053.78;5027289;28;20048;-73
2022/06/25 06:27:01;;;;;;;8.65;3.92;;;;;;;25.96;60.45;101055.81;5051489;28;20052;-73
2022/06/25 06:29:29;;;;;;;8.02;3.80;;;;;;;26.28;60.53;101051.72;5043938;28;20593;-74
2022/06/25 06:31:55;;;;;;;4.60;3.33;;;;;;;26.18;61.05;101052.03;5044080;28;20033;-73
2022/06/25 06:34:23;;;;;;;8.98;3.30;;;;;;;25.61;59.91;101062.91;5046333;28;20573;-74
2022/06/25 06:36:49;;;;;;;7.75;4.18;;;;;;;25.50;61.57;101059.63;5049092;28;20052;-73
2022/06/25 06:39:18;;;;;;;11.65;3.53;;;;;;;24.84;61.02;101055.88;5043839;28;20170;-74
2022/06/25 06:41:43;;;;;;;5.97;3.60;;;;;;;25.69;58.81;101065.53;5050847;28;20052;-74
2022/06/25 06:44:08;;;;;;;5.47;3.58;;;;;;;26.24;60.01;101061.34;5043782;28;20045;-74
2022/06/25 06:46:34;;;;;;;6.82;3.30;;;;;;;25.35;61.55;101066.94;5036897;28;20120;-73
2022/06/25 06:48:59;;;;;;;6.85;3.47;;;;;;;26.09;58.63;101062.25;5025545;28;20052;-73
2022/06/25 06:51:25;;;;;;;5.63;3.13;;;;;;;25.65;60.22;101061.47;5050357;28;20083;-73
2022/06/25 06:53:53;;;;;;;4.65;2.97;;;;;;;26.44;58.91;101067.91;5037324;28;20036;-73
2022/06/25 06:56:18;;;;;;;6.30;3.28;;;;;;;25.77;60.47;101070.91;5060162;28;20087;-73
2022/06/25 06:58:43;;;;;;;4.72;3.00;;;;;;;25.66;58.79;101069.50;5028993;28;20036;-72
2022/06/25 07:01:09;;;;;;;3.13;2.30;;;;;;;26.42;59.37;101072.72;5044055;28;20051;-73
2022/06/25 07:03:34;;;;;;;6.80;3.15;;;;;;;26.17;59.41;101072.22;5042149;28;20030;-73
2022/06/25 07:06:02;;;;;;;8.00;3.40;;;;;;;26.30;58.21;101072.34;5051539;28;20179;-73
2022/06/25 07:08:28;;;;;;;6.25;3.35;;;;;;;26.76;56.59;101068.41;5041596;28;20037;-73
2022/06/25 07:10:53;;;;;;;6.10;3.42;;;;;;;26.77;56.75;101061.88;5044568;28;20037;-73
2022/06/25 07:13:19;;;;;;;5.35;3.28;;;;;;;27.38;58.53;101073.09;5040314;28;20072;-73
2022/06/25 07:15:44;;;;;;;5.65;2.88;;;;;;;26.93;56.55;101075.28;5049344;28;20033;-73
2022/06/25 07:18:10;;;;;;;4.70;3.17;;;;;;;26.14;57.26;101078.06;5046535;28;20124;-73
2022/06/25 07:20:35;;;;;;;6.70;3.47;;;;;;;26.03;57.60;101084.06;5049106;28;20482;-73
2022/06/25 07:23:01;;;;;;;5.20;3.05;;;;;;;25.63;59.75;101077.22;5037479;28;20150;-73
2022/06/25 07:25:27;;;;;;;5.43;3.33;;;;;;;25.25;59.17;101080.91;5023235;28;20037;-73
2022/06/25 07:27:52;;;;;;;3.70;2.80;;;;;;;25.80;59.82;101078.72;5021633;28;20033;-73
2022/06/25 07:30:18;;;;;;;3.45;2.55;;;;;;;26.25;59.20;101071.25;5043259;28;20045;-73
2022/06/25 07:32:43;;;;;;;5.15;3.50;;;;;;;26.29;59.27;101075.28;5038786;28;20478;-73
2022/06/25 07:35:09;;;;;;;5.43;2.65;;;;;;;26.74;56.95;101085.00;5041630;28;20510;-73
2022/06/25 07:37:35;;;;;;;3.63;3.00;;;;;;;26.44;57.42;101078.84;5045104;28;20211;-73
2022/06/25 07:40:04;;;;;;;6.63;3.13;;;;;;;26.26;57.96;101084.75;5040931;28;20733;-73
2022/06/25 07:42:30;;;;;;;7.70;2.80;;;;;;;26.37;57.55;101079.78;5036565;28;20060;-72
2022/06/25 07:44:56;;;;;;;5.93;2.58;;;;;;;26.46;59.50;101079.50;5037865;28;20049;-73
2022/06/25 07:47:21;;;;;;;6.90;3.03;;;;;;;27.00;57.41;101080.78;5043066;28;20045;-73
2022/06/25 07:52:31;;;;;;;7.22;2.92;;;;;;;26.76;54.94;101088.41;5036802;28;20837;-73
2022/06/25 07:54:59;;;;;;;6.05;3.30;;;;;;;27.15;58.54;101073.34;5035672;28;20037;-73
2022/06/25 07:57:24;;;;;;;4.20;2.70;;;;;;;27.09;56.72;101083.22;5049774;28;20064;-73
2022/06/25 07:59:49;;;;;;;6.20;2.67;;;;;;;26.89;57.21;101089.56;5047245;28;20724;-72
2022/06/25 08:02:15;;;;;;;4.80;3.10;;;;;;;26.84;56.78;101090.16;5043798;28;20029;-73
2022/06/25 08:04:40;;;;;;;5.63;2.42;;;;;;;27.75;55.52;101084.66;5042330;28;20037;-73
2022/06/25 08:07:06;;;;;;;7.68;2.97;;;;;;;26.77;55.71;101086.53;5041561;28;20036;-73
2022/06/25 08:09:31;;;;;;;4.57;2.47;;;;;;;27.27;56.10;101090.09;5043438;28;20037;-73
2022/06/25 08:11:57;;;;;;;2.67;2.47;;;;;;;27.10;56.35;101078.56;5042910;28;20056;-73
2022/06/25 08:14:23;;;;;;;3.67;2.45;;;;;;;26.96;55.95;101091.31;5026812;28;20044;-73
2022/06/25 08:16:49;;;;;;;5.82;2.00;;;;;;;26.99;57.38;101088.16;5042593;28;20667;-73
2022/06/25 08:19:14;;;;;;;2.55;2.35;;;;;;;26.18;58.96;101090.31;5035620;28;20052;-72
2022/06/25 08:21:40;;;;;;;6.70;2.25;;;;;;;26.03;58.93;101097.72;5037613;28;20112;-72
2022/06/25 08:24:05;;;;;;;5.05;2.35;;;;;;;25.73;59.06;101089.53;5037523;28;20045;-72
2022/06/25 08:26:31;;;;;;;5.40;2.80;;;;;;;25.32;60.64;101091.91;5045021;28;20553;-72
2022/06/25 08:28:56;;;;;;;5.85;2.30;;;;;;;26.11;59.78;101094.88;5053148;28;20839;-72
2022/06/25 08:31:23;;;;;;;4.63;2.40;;;;;;;25.75;59.83;101105.75;5042773;28;20056;-72
2022/06/25 08:33:49;;;;;;;5.40;3.08;;;;;;;25.26;61.62;101101.72;5024606;28;20045;-72
2022/06/25 08:36:14;;;;;;;3.95;2.58;;;;;;;25.26;61.35;101101.72;5043533;28;20051;-72
2022/06/25 08:38:40;;;;;;;2.33;2.13;;;;;;;25.29;61.08;101095.00;5025425;28;20893;-72
2022/06/25 08:41:05;;;;;;;2.25;2.00;;;;;;;25.38;62.23;101101.25;5044655;28;20444;-73
2022/06/25 08:43:31;;;;;;;3.70;2.13;;;;;;;25.26;61.72;101098.13;5043795;28;20521;-73
2022/06/25 08:45:57;;;;;;;4.43;1.85;;;;;;;25.22;62.28;101099.53;5043705;28;20578;-72
2022/06/25 08:48:29;;;;;;;2.83;2.25;;;;;;;25.05;60.70;101096.06;5058430;28;20041;-72
2022/06/25 08:50:55;;;;;;;4.50;2.03;;;;;;;26.02;60.11;101096.88;5039990;28;20025;-72
2022/06/25 08:53:21;;;;;;;4.32;2.47;;;;;;;26.11;58.32;101108.53;5044082;28;20055;-72
2022/06/25 08:55:47;;;;;;;4.28;1.80;;;;;;;26.07;60.04;101104.50;5050933;28;20092;-72
2022/06/25 08:58:13;;;;;;;4.45;2.20;;;;;;;27.26;56.23;101104.78;5046294;28;20068;-72
2022/06/25 09:00:42;;;;;;;9.98;2.17;;;;;;;27.52;55.66;101102.25;5025728;28;20137;-73
2022/06/25 09:03:08;;;;;;;4.20;2.20;;;;;;;26.56;56.87;101106.53;5043158;28;20037;-73
2022/06/25 09:05:42;;;;;;;5.05;2.00;;;;;;;26.69;55.54;101105.78;5036909;28;20037;-73
2022/06/25 09:08:15;;;;;;;3.58;2.00;;;;;;;27.37;55.38;101101.53;5026444;28;20048;-72
2022/06/25 09:10:43;;;;;;;5.85;1.48;;;;;;;27.52;53.00;101094.03;5054390;28;20032;-73
2022/06/25 09:13:10;;;;;;;5.15;1.83;;;;;;;27.47;52.76;101096.53;5021509;28;20134;-72
2022/06/25 09:15:39;;;;;;;2.65;1.40;;;;;;;27.10;55.88;101090.38;5041891;28;20044;-73
2022/06/25 09:18:16;;;;;;;2.10;1.90;;;;;;;26.17;57.18;101105.03;5047287;28;20692;-72
2022/06/25 09:21:05;;;;;;;3.95;2.00;;;;;;;26.12;55.64;101099.31;5062726;28;20777;-72
2022/06/25 09:23:34;;;;;;;16.38;2.50;;;;;;;26.56;56.50;101093.69;5039059;28;20094;-72
2022/06/25 09:26:00;;;;;;;3.83;1.85;;;;;;;26.89;55.74;101095.88;5055824;28;20047;-72
2022/06/25 09:28:34;;;;;;;5.50;1.92;;;;;;;26.66;58.34;101097.97;5044540;28;20037;-72
2022/06/25 09:31:02;;;;;;;6.53;2.03;;;;;;;26.96;56.56;101094.06;5027036;28;20048;-72
2022/06/25 09:33:29;;;;;;;3.50;1.75;;;;;;;28.02;56.49;101091.13;5053242;28;20048;-72
2022/06/25 09:35:55;;;;;;;5.32;1.77;;;;;;;27.64;53.31;101088.81;5053742;28;20661;-72
2022/06/25 09:38:21;;;;;;;4.43;2.33;;;;;;;27.79;57.48;101091.44;5038314;28;20041;-72
2022/06/25 09:40:57;;;;;;;6.40;1.85;;;;;;;27.86;52.91;101092.31;5051019;28;20044;-73
2022/06/25 09:43:47;;;;;;;7.28;1.58;;;;;;;27.68;55.57;101090.09;5048959;28;20781;-72
2022/06/25 09:46:13;;;;;;;1.88;1.40;;;;;;;26.44;56.01;101089.78;5037515;28;20491;-72
2022/06/25 09:48:41;;;;;;;4.35;1.52;;;;;;;26.64;54.47;101103.66;5061551;28;20082;-73
2022/06/25 09:51:23;;;;;;;1.55;1.45;;;;;;;26.64;55.69;101106.38;5052101;28;20044;-73
2022/06/25 09:53:51;;;;;;;;;;;;;;;26.22;56.55;101108.03;5029588;28;20036;-75
2022/06/25 09:56:21;;;;;;;2.92;1.35;;;;;;;26.27;56.57;101102.84;5016462;28;19916;-73
2022/06/25 09:58:47;;;;;;;5.75;1.80;;;;;;;26.13;57.52;101106.44;5037281;28;20037;-73
2022/06/25 10:01:18;;;;;;;3.97;1.70;;;;;;;27.48;56.17;101100.94;5045725;28;20098;-73
2022/06/25 10:03:45;;;;;;;8.20;2.10;;;;;;;26.66;55.20;101106.19;5042276;28;20122;-73
2022/06/25 10:06:16;;;;;;;2.25;0.60;;;;;;;26.62;55.11;101111.22;5050964;28;20066;-74
2022/06/25 10:08:59;;;;;;;1.23;0.87;;;;;;;27.57;52.01;101097.00;5048941;28;20130;-74
2022/06/25 10:11:27;;;;;;;1.58;0.77;;;;;;;28.22;51.38;101097.50;5060641;28;20037;-73
2022/06/25 10:13:53;;;;;;;1.23;0.77;;;;;;;28.64;53.72;101092.75;5050859;28;20048;-74
2022/06/25 10:16:20;;;;;;;0.70;0.70;;;;;;;29.04;49.51;101088.13;5056062;28;20095;-74
2022/06/25 10:18:48;;;;;;;0.70;0.50;;;;;;;28.21;51.41;101093.06;5049181;28;20045;-73
2022/06/25 10:21:14;;;;;;;1.23;0.73;;;;;;;29.04;51.45;101096.38;5038471;28;20108;-73
2022/06/25 10:23:41;;;;;;;1.58;0.80;;;;;;;28.38;51.39;101096.31;5047892;28;20110;-73
2022/06/25 10:26:07;;;;;;;3.28;0.80;;;;;;;27.30;52.02;101100.63;5044352;28;20057;-72
2022/06/25 10:28:35;;;;;;;2.20;0.80;;;;;;;27.31;53.57;101102.31;5042363;28;20080;-72
2022/06/25 10:31:05;;;;;;;1.38;1.13;;;;;;;27.74;54.59;101103.00;5047040;28;20068;-72
2022/06/25 10:33:36;;;;;;;3.20;1.02;;;;;;;27.15;53.16;101114.41;5044644;28;20051;-73
2022/06/25 10:36:04;;;;;;;5.03;2.15;;;;;;;26.60;54.67;101105.91;5045601;28;20041;-73
2022/06/25 10:38:30;;;;;;;4.30;0.93;;;;;;;26.62;53.42;101110.38;5045448;28;20045;-73
2022/06/25 10:42:58;;;;;;;1.17;0.82;;;;;;;26.56;55.68;101115.59;5041914;28;20037;-73
2022/06/25 10:43:50;;;;;;;2.67;1.73;;;;;;;26.45;54.77;101107.88;5056549;28;20044;-73
2022/06/25 10:46:24;;;;;;;3.63;1.00;;;;;;;26.30;55.64;101109.78;5041624;28;20036;-73
2022/06/25 10:49:17;;;;;;;2.33;0.70;;;;;;;26.25;54.66;101120.47;5048931;28;20040;-73
2022/06/25 10:51:47;;;;;;;2.67;1.05;;;;;;;26.01;55.37;101122.53;5046934;28;20036;-73
2022/06/25 10:54:24;;;;;;;1.63;0.70;;;;;;;25.87;55.65;101115.19;5037895;28;20052;-73
2022/06/25 10:56:54;;;;;;;2.67;0.90;;;;;;;25.96;57.75;101121.41;5035180;28;20041;-73
2022/06/25 10:59:32;;;;;;;4.18;1.20;;;;;;;26.03;56.42;101125.06;5039240;28;20040;-73
2022/06/25 11:02:03;;;;;;;3.50;1.00;;;;;;;25.82;56.53;101118.50;5045511;28;20040;-73
2022/06/25 11:04:30;;;;;;;4.27;0.97;;;;;;;25.21;57.49;101116.97;5033432;28;20498;-73
2022/06/25 11:07:13;;;;;;;2.38;0.90;;;;;;;25.32;57.60;101113.75;5052440;28;20216;-73
2022/06/25 11:09:39;;;;;;;0.98;0.82;;;;;;;25.19;57.48;101117.13;5020479;28;20051;-72
2022/06/25 11:12:06;;;;;;;1.13;1.00;;;;;;;25.79;58.60;101116.13;5033524;28;20048;-72
2022/06/25 11:14:31;;;;;;;2.85;1.00;;;;;;;25.96;57.49;101116.78;5037954;28;20145;-72
2022/06/25 11:16:57;;;;;;;2.33;1.30;;;;;;;25.81;59.40;101116.81;5042894;28;20040;-72
2022/06/25 11:19:23;;;;;;;1.25;0.90;;;;;;;25.47;58.15;101119.22;5043818;28;20033;-73
2022/06/25 11:21:50;;;;;;;3.55;1.30;;;;;;;25.48;60.27;101119.03;5050457;28;20037;-72
2022/06/25 11:24:25;;;;;;;1.77;1.20;;;;;;;25.96;59.18;101119.50;5051885;28;20048;-73
2022/06/25 11:29:36;;;;;;;2.55;1.30;;;;;;;25.42;59.88;101122.53;5032364;28;20049;-73
2022/06/25 11:32:02;;;;;;;3.53;1.17;;;;;;;25.31;60.03;101120.25;5047301;28;20178;-73
2022/06/25 11:34:29;;;;;;;1.23;1.13;;;;;;;25.30;59.93;101121.28;5047938;28;20124;-73
2022/06/25 11:36:58;;;;;;;3.15;1.35;;;;;;;25.18;58.63;101125.50;5045984;28;20970;-73
2022/06/25 11:39:24;;;;;;;2.50;1.35;;;;;;;25.69;57.62;101122.88;5040742;28;20037;-73
2022/06/25 11:41:51;;;;;;;3.08;1.52;;;;;;;26.25;57.20;101126.78;5045973;28;20481;-73
2022/06/25 11:44:18;;;;;;;10.55;1.45;;;;;;;26.14;58.02;101130.00;5046540;28;20049;-73